Time;durP1;ratioP1;P1;durP2;ratioP2;P2;SDS_P1;SDS_P2;PMS_P1;PMS_P2;Temp;Humidity;BMP_temperature;BMP_pressure;BME280_temperature;BME280_humidity;BME280_pressure;Samples;Min_cycle;Max_cycle;Signal;HPM_P1;HPM_P2
2023/10/27 00:00:44;;;;;;;;;;;10.20;87.90;;;;;;5089147;28;19912;-72
2023/10/27 00:03:09;;;;;;;;;;;10.20;87.90;;;;;;5088963;28;19999;-72
2023/10/27 00:05:35;;;;;;;;;;;10.20;87.80;;;;;;5089642;28;19916;-72
2023/10/27 00:08:00;;;;;;;;;;;10.20;87.80;;;;;;5089158;28;19947;-72
2023/10/27 00:10:26;;;;;;;;;;;10.10;87.60;;;;;;5089040;28;19935;-72
2023/10/27 00:12:51;;;;;;;;;;;10.10;87.70;;;;;;5088833;28;20061;-72
2023/10/27 00:15:17;;;;;;;;;;;10.10;87.80;;;;;;5071135;28;19912;-73
2023/10/27 00:17:43;;;;;;;;;;;10.00;87.70;;;;;;5088881;28;20391;-71
2023/10/27 00:20:09;;;;;;;;;;;10.00;87.60;;;;;;5088732;28;19912;-71
2023/10/27 00:22:35;;;;;;;;;;;10.00;87.60;;;;;;5088769;28;19912;-71
2023/10/27 00:25:01;;;;;;;;;;;10.00;87.70;;;;;;5088646;28;19942;-71
2023/10/27 00:27:27;;;;;;;;;;;10.00;87.70;;;;;;5088917;28;20014;-73
2023/10/27 00:29:52;;;;;;;;;;;10.00;88.10;;;;;;5070603;28;20406;-71
2023/10/27 00:32:18;;;;;;;;;;;9.90;87.50;;;;;;5088683;28;19935;-71
2023/10/27 00:34:43;;;;;;;;;;;9.90;87.50;;;;;;5088420;28;19919;-71
2023/10/27 00:37:09;;;;;;;;;;;9.80;87.60;;;;;;5088639;28;19920;-71
2023/10/27 00:39:35;;;;;;;;;;;9.80;87.60;;;;;;5069878;28;19916;-71
2023/10/27 00:42:00;;;;;;;;;;;9.80;87.60;;;;;;5088289;28;19916;-71
2023/10/27 00:44:26;;;;;;;;;;;9.80;87.70;;;;;;5088462;28;20403;-71
2023/10/27 00:46:52;;;;;;;;;;;9.80;87.60;;;;;;5088419;28;19908;-71
2023/10/27 00:49:18;;;;;;;;;;;9.80;87.60;;;;;;5088409;28;19912;-71
2023/10/27 00:51:46;;;;;;;;;;;9.80;87.60;;;;;;5070253;28;20293;-71
2023/10/27 00:54:12;;;;;;;;;;;9.80;87.60;;;;;;5088227;28;19966;-71
2023/10/27 00:56:39;;;;;;;;;;;9.80;87.60;;;;;;5088189;28;19912;-71
2023/10/27 00:59:05;;;;;;;;;;;9.80;88.10;;;;;;5088203;28;20257;-71
2023/10/27 01:01:31;;;;;;;;;;;9.80;87.60;;;;;;5088221;28;19919;-71
2023/10/27 01:03:56;;;;;;;;;;;9.90;87.70;;;;;;5069812;28;20023;-71
2023/10/27 01:06:23;;;;;;;;;;;9.90;87.70;;;;;;5088168;28;20015;-73
2023/10/27 01:08:48;;;;;;;;;;;9.90;87.60;;;;;;5088328;28;19923;-73
2023/10/27 01:11:14;;;;;;;;;;;10.00;87.70;;;;;;5088107;28;20257;-73
2023/10/27 01:13:40;;;;;;;;;;;10.10;87.70;;;;;;5088120;28;19908;-73
2023/10/27 01:16:05;;;;;;;;;;;10.10;87.60;;;;;;5088047;28;19911;-73
2023/10/27 01:18:31;;;;;;;;;;;10.10;87.50;;;;;;5087898;28;20420;-73
2023/10/27 01:20:56;;;;;;;;;;;10.00;87.40;;;;;;5088011;28;19916;-73
2023/10/27 01:23:22;;;;;;;;;;;10.00;87.50;;;;;;5087992;28;19932;-73
2023/10/27 01:25:48;;;;;;;;;;;10.00;87.50;;;;;;5087966;28;20360;-73
2023/10/27 01:28:13;;;;;;;;;;;10.00;87.50;;;;;;5087923;28;20014;-73
2023/10/27 01:30:39;;;;;;;;;;;9.90;87.40;;;;;;5088058;28;19932;-73
2023/10/27 01:33:04;;;;;;;;;;;9.90;87.20;;;;;;5087915;28;19912;-73
2023/10/27 01:35:30;;;;;;;;;;;10.00;87.10;;;;;;5087911;28;19961;-71
2023/10/27 01:37:55;;;;;;;;;;;9.90;87.00;;;;;;5087781;28;20023;-71
2023/10/27 01:40:21;;;;;;;;;;;9.90;86.90;;;;;;5087676;28;19915;-71
2023/10/27 01:42:46;;;;;;;;;;;9.90;86.90;;;;;;5087710;28;19912;-73
2023/10/27 01:45:13;;;;;;;;;;;9.90;86.90;;;;;;5069642;28;19916;-71
2023/10/27 01:47:39;;;;;;;;;;;9.90;87.00;;;;;;5087893;28;19912;-71
2023/10/27 01:50:06;;;;;;;;;;;9.80;87.00;;;;;;5087934;28;20370;-71
2023/10/27 01:52:31;;;;;;;;;;;9.80;87.00;;;;;;5088865;28;19908;-71
2023/10/27 01:54:57;;;;;;;;;;;9.70;86.90;;;;;;5073393;28;20023;-71
2023/10/27 01:57:23;;;;;;;;;;;9.60;86.90;;;;;;5091663;28;19957;-71
2023/10/27 01:59:49;;;;;;;;;;;9.40;87.00;;;;;;5091533;28;19922;-71
2023/10/27 02:02:15;;;;;;;;;;;9.20;87.10;;;;;;5091571;28;20011;-70
2023/10/27 02:04:41;;;;;;;;;;;9.00;87.30;;;;;;5091188;28;19935;-71
2023/10/27 02:07:07;;;;;;;;;;;8.90;87.50;;;;;;5073332;28;19912;-72
2023/10/27 02:09:32;;;;;;;;;;;8.80;87.60;;;;;;5091287;28;19937;-71
2023/10/27 02:11:58;;;;;;;;;;;8.80;87.70;;;;;;5091311;28;19912;-71
2023/10/27 02:14:25;;;;;;;;;;;8.80;87.90;;;;;;5091115;28;19908;-71
2023/10/27 02:16:50;;;;;;;;;;;8.80;87.90;;;;;;5073052;28;19912;-71
2023/10/27 02:19:16;;;;;;;;;;;8.90;87.80;;;;;;5091115;28;20375;-71
2023/10/27 02:21:41;;;;;;;;;;;8.90;87.60;;;;;;5091071;28;19965;-70
2023/10/27 02:24:07;;;;;;;;;;;8.90;87.50;;;;;;5090940;28;19912;-71
2023/10/27 02:26:32;;;;;;;;;;;8.90;87.50;;;;;;5072908;28;20310;-71
2023/10/27 02:28:58;;;;;;;;;;;8.90;87.50;;;;;;5091010;28;20314;-71
2023/10/27 02:31:24;;;;;;;;;;;8.90;87.30;;;;;;5072818;28;19937;-71
2023/10/27 02:33:50;;;;;;;;;;;8.90;87.30;;;;;;5090928;28;19974;-71
2023/10/27 02:36:15;;;;;;;;;;;8.90;87.20;;;;;;5090742;28;19911;-71
2023/10/27 02:38:41;;;;;;;;;;;8.90;87.10;;;;;;5090757;28;19926;-71
2023/10/27 02:41:10;;;;;;;;;;;8.90;87.20;;;;;;5090806;28;19912;-71
2023/10/27 02:43:36;;;;;;;;;;;8.80;87.30;;;;;;5090776;28;19912;-70
2023/10/27 02:46:01;;;;;;;;;;;8.80;87.30;;;;;;5090527;28;19912;-71
2023/10/27 02:48:27;;;;;;;;;;;8.80;87.40;;;;;;5090736;28;19919;-72
2023/10/27 02:50:52;;;;;;;;;;;8.80;87.30;;;;;;5090578;28;19920;-71
2023/10/27 02:53:18;;;;;;;;;;;8.80;87.10;;;;;;5090592;28;19944;-71
2023/10/27 02:55:44;;;;;;;;;;;8.80;87.20;;;;;;5090434;28;19932;-71
2023/10/27 02:58:10;;;;;;;;;;;8.80;87.20;;;;;;5090304;28;19961;-72
2023/10/27 03:00:39;;;;;;;;;;;8.70;87.20;;;;;;5090915;28;19912;-72
2023/10/27 03:03:04;;;;;;;;;;;8.70;87.30;;;;;;5071523;28;19952;-72
2023/10/27 03:05:30;;;;;;;;;;;8.70;87.30;;;;;;5090306;28;20012;-72
2023/10/27 03:07:56;;;;;;;;;;;8.60;87.20;;;;;;5090354;28;20395;-72
2023/10/27 03:10:21;;;;;;;;;;;8.60;87.20;;;;;;5072124;28;19916;-73
2023/10/27 03:12:47;;;;;;;;;;;8.60;87.30;;;;;;5090317;28;19923;-73
2023/10/27 03:15:12;;;;;;;;;;;8.60;87.40;;;;;;5090241;28;19949;-72
2023/10/27 03:17:38;;;;;;;;;;;8.60;87.50;;;;;;5090049;28;19965;-72
2023/10/27 03:20:04;;;;;;;;;;;8.60;87.40;;;;;;5072292;28;19912;-72
2023/10/27 03:22:30;;;;;;;;;;;8.60;87.40;;;;;;5089974;28;19912;-72
2023/10/27 03:24:56;;;;;;;;;;;8.60;87.30;;;;;;5089974;28;19934;-72
2023/10/27 03:27:21;;;;;;;;;;;8.50;87.10;;;;;;5089975;28;19912;-73
2023/10/27 03:29:47;;;;;;;;;;;8.50;87.20;;;;;;5089720;28;19913;-72
2023/10/27 03:32:13;;;;;;;;;;;8.40;87.30;;;;;;5090022;28;20379;-72
2023/10/27 03:34:38;;;;;;;;;;;8.40;87.30;;;;;;5071436;28;20326;-72
2023/10/27 03:37:04;;;;;;;;;;;8.40;87.30;;;;;;5090075;28;20370;-72
2023/10/27 03:39:29;;;;;;;;;;;8.50;87.30;;;;;;5089616;28;19991;-72
2023/10/27 03:41:56;;;;;;;;;;;8.50;87.20;;;;;;5089658;28;19958;-72
2023/10/27 03:44:21;;;;;;;;;;;8.50;87.20;;;;;;5089503;28;19991;-72
2023/10/27 03:46:48;;;;;;;;;;;8.50;87.60;;;;;;5089535;28;19908;-72
2023/10/27 03:49:14;;;;;;;;;;;8.50;87.20;;;;;;5089532;28;19916;-72
2023/10/27 03:51:39;;;;;;;;;;;8.40;87.20;;;;;;5089624;28;20064;-72
2023/10/27 03:54:05;;;;;;;;;;;8.50;87.10;;;;;;5089128;28;19913;-72
2023/10/27 03:56:32;;;;;;;;;;;8.40;87.20;;;;;;5089280;28;20007;-72
2023/10/27 03:58:58;;;;;;;;;;;8.40;87.20;;;;;;5089015;28;19916;-72
2023/10/27 04:01:26;;;;;;;;;;;8.40;87.10;;;;;;5070695;28;19920;-72
2023/10/27 04:03:51;;;;;;;;;;;8.40;87.20;;;;;;5088992;28;19945;-73
2023/10/27 04:06:17;;;;;;;;;;;8.40;87.30;;;;;;5088923;28;19942;-73
2023/10/27 04:08:42;;;;;;;;;;;8.40;87.30;;;;;;5071185;28;19916;-73
2023/10/27 04:11:10;;;;;;;;;;;8.40;87.20;;;;;;5070292;28;20722;-72
2023/10/27 04:13:35;;;;;;;;;;;8.40;87.10;;;;;;5088957;28;19912;-72
2023/10/27 04:16:01;;;;;;;;;;;8.40;87.10;;;;;;5088271;28;19962;-73
2023/10/27 04:18:27;;;;;;;;;;;8.40;87.00;;;;;;5088841;28;20007;-73
2023/10/27 04:20:53;;;;;;;;;;;8.40;87.50;;;;;;5088961;28;19963;-73
2023/10/27 04:23:18;;;;;;;;;;;8.40;86.90;;;;;;5070693;28;19961;-72
2023/10/27 04:25:44;;;;;;;;;;;8.40;86.90;;;;;;5070439;28;20323;-72
2023/10/27 04:28:10;;;;;;;;;;;8.40;87.00;;;;;;5088693;28;19912;-71
2023/10/27 04:30:37;;;;;;;;;;;8.30;87.00;;;;;;5070661;28;20022;-71
2023/10/27 04:33:04;;;;;;;;;;;8.20;87.00;;;;;;5088728;28;19916;-71
2023/10/27 04:35:30;;;;;;;;;;;8.20;87.10;;;;;;5088562;28;19954;-71
2023/10/27 04:37:56;;;;;;;;;;;8.20;87.10;;;;;;5070203;28;20372;-71
2023/10/27 04:40:22;;;;;;;;;;;8.20;87.10;;;;;;5070331;28;20434;-71
2023/10/27 04:42:48;;;;;;;;;;;8.10;87.20;;;;;;5088427;28;20264;-70
2023/10/27 04:45:14;;;;;;;;;;;8.20;87.10;;;;;;5070291;28;19918;-71
2023/10/27 04:47:39;;;;;;;;;;;8.10;87.00;;;;;;5088380;28;19912;-71
2023/10/27 04:50:05;;;;;;;;;;;8.10;87.00;;;;;;5088179;28;19916;-71
2023/10/27 04:52:31;;;;;;;;;;;8.10;87.10;;;;;;5070001;28;20326;-71
2023/10/27 04:54:57;;;;;;;;;;;8.10;87.10;;;;;;5088176;28;19916;-71
2023/10/27 04:57:22;;;;;;;;;;;8.10;87.00;;;;;;5069857;28;19923;-70
2023/10/27 04:59:48;;;;;;;;;;;8.10;86.90;;;;;;5088389;28;20283;-71
2023/10/27 05:02:13;;;;;;;;;;;8.10;87.00;;;;;;5070179;28;20286;-71
2023/10/27 05:04:39;;;;;;;;;;;8.10;87.00;;;;;;5088043;28;20406;-71
2023/10/27 05:07:05;;;;;;;;;;;8.20;87.00;;;;;;5088231;28;19916;-73
2023/10/27 05:09:32;;;;;;;;;;;8.20;86.90;;;;;;5088147;28;19908;-73
2023/10/27 05:11:57;;;;;;;;;;;8.20;86.90;;;;;;5088113;28;19913;-73
2023/10/27 05:14:23;;;;;;;;;;;8.20;86.90;;;;;;5087874;28;19920;-73
2023/10/27 05:16:49;;;;;;;;;;;8.20;86.90;;;;;;5088059;28;20284;-73
2023/10/27 05:19:15;;;;;;;;;;;8.20;87.00;;;;;;5087913;28;19916;-73
2023/10/27 05:21:40;;;;;;;;;;;8.10;87.00;;;;;;5087960;28;19920;-72
2023/10/27 05:24:06;;;;;;;;;;;8.10;87.10;;;;;;5087840;28;19912;-72
2023/10/27 05:26:31;;;;;;;;;;;8.10;87.10;;;;;;5089042;28;19912;-73
2023/10/27 05:28:57;;;;;;;;;;;8.20;87.10;;;;;;5092198;28;19929;-73
2023/10/27 05:31:23;;;;;;;;;;;8.20;87.00;;;;;;5092203;28;19958;-72
2023/10/27 05:33:48;;;;;;;;;;;8.20;86.80;;;;;;5092030;28;19911;-72
2023/10/27 05:36:14;;;;;;;;;;;8.10;86.70;;;;;;5092027;28;19919;-70
2023/10/27 05:38:40;;;;;;;;;;;8.10;86.90;;;;;;5091713;28;20453;-70
2023/10/27 05:41:05;;;;;;;;;;;8.10;86.90;;;;;;5073778;28;20317;-70
2023/10/27 05:43:31;;;;;;;;;;;8.10;86.90;;;;;;5091839;28;19927;-72
2023/10/27 05:45:56;;;;;;;;;;;8.10;87.00;;;;;;5091849;28;19965;-73
2023/10/27 05:48:22;;;;;;;;;;;8.00;86.90;;;;;;5073493;28;19951;-73
2023/10/27 05:50:47;;;;;;;;;;;8.10;87.00;;;;;;5091730;28;19915;-73
2023/10/27 05:53:13;;;;;;;;;;;8.10;86.90;;;;;;5091560;28;19919;-73
2023/10/27 05:55:38;;;;;;;;;;;8.10;86.80;;;;;;5073242;28;19912;-73
2023/10/27 05:58:05;;;;;;;;;;;8.10;87.00;;;;;;5091246;28;19961;-71
2023/10/27 06:00:31;;;;;;;;;;;8.10;87.10;;;;;;5091663;28;19912;-73
2023/10/27 06:02:57;;;;;;;;;;;8.10;87.00;;;;;;5091225;28;19919;-72
2023/10/27 06:05:23;;;;;;;;;;;8.10;87.10;;;;;;5091359;28;20370;-73
2023/10/27 06:07:49;;;;;;;;;;;8.10;87.10;;;;;;5091487;28;19919;-73
2023/10/27 06:10:14;;;;;;;;;;;8.20;87.10;;;;;;5091105;28;19955;-72
2023/10/27 06:12:40;;;;;;;;;;;8.20;87.00;;;;;;5091268;28;20010;-72
2023/10/27 06:15:06;;;;;;;;;;;8.20;86.90;;;;;;5091140;28;19917;-73
2023/10/27 06:17:32;;;;;;;;;;;8.30;87.00;;;;;;5091060;28;20288;-72
2023/10/27 06:19:58;;;;;;;;;;;8.30;86.90;;;;;;5090869;28;19916;-72
2023/10/27 06:22:24;;;;;;;;;;;8.20;86.80;;;;;;5091052;28;19908;-73
2023/10/27 06:24:49;;;;;;;;;;;8.20;86.80;;;;;;5090929;28;19919;-72
2023/10/27 06:27:15;;;;;;;;;;;8.20;86.80;;;;;;5072785;28;19935;-72
2023/10/27 06:29:41;;;;;;;;;;;8.20;86.90;;;;;;5090697;28;19923;-73
2023/10/27 06:32:06;;;;;;;;;;;8.10;87.10;;;;;;5091177;28;19908;-73
2023/10/27 06:34:32;;;;;;;;;;;8.10;86.80;;;;;;5090778;28;20305;-73
2023/10/27 06:36:58;;;;;;;;;;;8.10;86.90;;;;;;5090328;28;20038;-72
2023/10/27 06:39:24;;;;;;;;;;;8.10;86.90;;;;;;5071637;28;19916;-71
2023/10/27 06:41:50;;;;;;;;;;;8.00;86.90;;;;;;5072532;28;19916;-71
2023/10/27 06:44:16;;;;;;;;;;;8.00;86.90;;;;;;5090433;28;19912;-71
2023/10/27 06:46:44;;;;;;;;;;;8.00;86.90;;;;;;5072258;28;19916;-71
2023/10/27 06:49:10;;;;;;;;;;;7.90;87.00;;;;;;5090457;28;20004;-71
2023/10/27 06:51:35;;;;;;;;;;;7.90;87.00;;;;;;5090619;28;20402;-71
2023/10/27 06:54:01;;;;;;;;;;;7.90;86.90;;;;;;5090028;28;19916;-71
2023/10/27 06:56:28;;;;;;;;;;;8.00;86.90;;;;;;5090106;28;20005;-71
2023/10/27 06:58:57;;;;;;;;;;;8.00;86.90;;;;;;5089596;28;19916;-71
2023/10/27 07:01:22;;;;;;;;;;;8.00;86.90;;;;;;5090296;28;19912;-72
2023/10/27 07:03:48;;;;;;;;;;;8.00;86.90;;;;;;5071703;28;19925;-71
2023/10/27 07:06:13;;;;;;;;;;;8.00;87.00;;;;;;5089755;28;19923;-71
2023/10/27 07:08:39;;;;;;;;;;;8.10;87.00;;;;;;5089861;28;19916;-71
2023/10/27 07:11:04;;;;;;;;;;;8.10;86.90;;;;;;5071729;28;19920;-72
2023/10/27 07:13:30;;;;;;;;;;;8.10;86.90;;;;;;5089861;28;19957;-72
2023/10/27 07:15:56;;;;;;;;;;;8.20;86.80;;;;;;5089630;28;19948;-72
2023/10/27 07:18:22;;;;;;;;;;;8.10;86.90;;;;;;5089436;28;19919;-72
2023/10/27 07:20:48;;;;;;;;;;;8.10;87.00;;;;;;5089756;28;19912;-71
2023/10/27 07:23:14;;;;;;;;;;;8.10;86.90;;;;;;5089758;28;19908;-71
2023/10/27 07:25:39;;;;;;;;;;;8.10;86.90;;;;;;5089552;28;20287;-71
2023/10/27 07:28:05;;;;;;;;;;;8.20;86.90;;;;;;5089825;28;19913;-71
2023/10/27 07:30:31;;;;;;;;;;;8.20;86.90;;;;;;5089517;28;20497;-71
2023/10/27 07:32:56;;;;;;;;;;;8.20;86.90;;;;;;5089398;28;19968;-72
2023/10/27 07:35:22;;;;;;;;;;;8.20;86.80;;;;;;5089340;28;19998;-71
2023/10/27 07:37:48;;;;;;;;;;;8.20;86.90;;;;;;5089729;28;19908;-71
2023/10/27 07:40:15;;;;;;;;;;;8.20;87.00;;;;;;5089097;28;19912;-71
2023/10/27 07:42:41;;;;;;;;;;;8.30;87.20;;;;;;5070751;28;20392;-71
2023/10/27 07:45:07;;;;;;;;;;;8.40;87.30;;;;;;5089048;28;19919;-71
2023/10/27 07:47:33;;;;;;;;;;;8.50;87.30;;;;;;5089325;28;20334;-71
2023/10/27 07:50:00;;;;;;;;;;;8.50;87.20;;;;;;5088665;28;19958;-71
2023/10/27 07:52:27;;;;;;;;;;;8.60;87.20;;;;;;5070737;28;20337;-72
2023/10/27 07:54:53;;;;;;;;;;;8.70;87.20;;;;;;5092354;28;19920;-72
2023/10/27 07:57:19;;;;;;;;;;;8.80;87.20;;;;;;5091268;28;19908;-72
2023/10/27 07:59:45;;;;;;;;;;;8.90;87.20;;;;;;5090996;28;19977;-72
2023/10/27 08:02:11;;;;;;;;;;;8.90;87.30;;;;;;5109584;28;19911;-72
2023/10/27 08:04:37;;;;;;;;;;;9.00;87.40;;;;;;5108633;28;20010;-72
2023/10/27 08:07:06;;;;;;;;;;;9.00;87.40;;;;;;5109254;28;20023;-72
2023/10/27 08:09:31;;;;;;;;;;;9.10;87.50;;;;;;5091157;28;20316;-73
2023/10/27 08:11:57;;;;;;;;;;;9.10;87.50;;;;;;5109613;28;19962;-71
2023/10/27 08:14:23;;;;;;;;;;;9.20;87.60;;;;;;5109372;28;19911;-72
2023/10/27 08:16:49;;;;;;;;;;;9.40;87.70;;;;;;5109968;28;19912;-72
2023/10/27 08:19:14;;;;;;;;;;;9.50;87.70;;;;;;5109216;28;19938;-72
2023/10/27 08:21:40;;;;;;;;;;;9.60;87.70;;;;;;5109476;28;20268;-72
2023/10/27 08:24:06;;;;;;;;;;;9.70;87.70;;;;;;5109165;28;20237;-71
2023/10/27 08:26:32;;;;;;;;;;;9.90;87.80;;;;;;5090760;28;19920;-72
2023/10/27 08:28:58;;;;;;;;;;;10.10;88.60;;;;;;5109054;28;19971;-72
2023/10/27 08:31:23;;;;;;;;;;;10.50;89.20;;;;;;5108816;28;19954;-72
2023/10/27 08:33:49;;;;;;;;;;;11.00;89.20;;;;;;5108151;28;20276;-71
2023/10/27 08:36:15;;;;;;;;;;;11.30;88.70;;;;;;5107950;28;20430;-72
2023/10/27 08:38:41;;;;;;;;;;;11.70;89.30;;;;;;5107865;28;19975;-73
2023/10/27 08:41:07;;;;;;;;;;;12.30;90.00;;;;;;5089720;28;19912;-75
2023/10/27 08:43:34;;;;;;;;;;;13.00;90.10;;;;;;5108605;28;20390;-75
2023/10/27 08:46:05;;;;;;;;;;;13.60;90.00;;;;;;5108666;28;19929;-75
2023/10/27 08:48:31;;;;;;;;;;;14.00;89.10;;;;;;5108243;28;19972;-75
2023/10/27 08:51:01;;;;;;;;;;;14.10;88.20;;;;;;5107694;28;20404;-76
2023/10/27 08:53:27;;;;;;;;;;;14.00;87.80;;;;;;5089906;28;19923;-76
2023/10/27 08:55:52;;;;;;;;;;;13.80;87.60;;;;;;5108464;28;20292;-74
2023/10/27 08:58:18;;;;;;;;;;;13.60;87.70;;;;;;5108243;28;19942;-72
2023/10/27 09:00:47;;;;;;;;;;;13.50;88.00;;;;;;5088827;28;19916;-76
2023/10/27 09:03:16;;;;;;;;;;;13.50;88.80;;;;;;5089051;28;20072;-75
2023/10/27 09:05:42;;;;;;;;;;;14.00;90.40;;;;;;5107831;28;19930;-76
2023/10/27 09:08:09;;;;;;;;;;;15.00;91.00;;;;;;5107840;28;19920;-76
2023/10/27 09:10:34;;;;;;;;;;;15.90;91.00;;;;;;5108096;28;19907;-74
2023/10/27 09:13:00;;;;;;;;;;;16.60;90.70;;;;;;5108306;28;20451;-75
2023/10/27 09:15:25;;;;;;;;;;;17.20;90.90;;;;;;5105555;28;20005;-75
2023/10/27 09:17:58;;;;;;;;;;;17.90;91.10;;;;;;5108228;28;19999;-75
2023/10/27 09:20:25;;;;;;;;;;;18.50;90.90;;;;;;5109027;28;19923;-76
2023/10/27 09:23:00;;;;;;;;;;;18.60;90.20;;;;;;5108205;28;19914;-75
2023/10/27 09:25:28;;;;;;;;;;;18.30;90.20;;;;;;5087740;28;19912;-74
2023/10/27 09:27:55;;;;;;;;;;;18.30;90.70;;;;;;5110813;28;19912;-75
2023/10/27 09:30:27;;;;;;;;;;;18.20;90.30;;;;;;5114406;28;19912;-73
2023/10/27 09:32:53;;;;;;;;;;;17.90;90.00;;;;;;5112047;28;19915;-76
2023/10/27 09:35:19;;;;;;;;;;;17.20;90.00;;;;;;5109320;28;19916;-75
2023/10/27 09:37:46;;;;;;;;;;;16.80;90.20;;;;;;5099515;28;19916;-76
2023/10/27 09:40:13;;;;;;;;;;;16.50;90.30;;;;;;5090384;28;19912;-73
2023/10/27 09:42:43;;;;;;;;;;;16.40;90.30;;;;;;5095728;28;19916;-75
2023/10/27 09:45:12;;;;;;;;;;;16.30;90.40;;;;;;5095090;28;19908;-75
2023/10/27 09:47:40;;;;;;;;;;;16.80;91.20;;;;;;5108757;28;19919;-75
2023/10/27 09:50:06;;;;;;;;;;;17.60;91.40;;;;;;5113276;28;20056;-74
2023/10/27 09:52:35;;;;;;;;;;;17.90;90.70;;;;;;5115712;28;20380;-76
2023/10/27 09:55:01;;;;;;;;;;;17.80;90.40;;;;;;5121946;28;20250;-75
2023/10/27 09:57:27;;;;;;;;;;;17.60;90.40;;;;;;5097185;28;19918;-73
2023/10/27 09:59:54;;;;;;;;;;;17.40;90.40;;;;;;5098327;28;19972;-72
2023/10/27 10:02:22;;;;;;;;;;;17.50;90.90;;;;;;5116596;28;19946;-75
2023/10/27 10:04:51;;;;;;;;;;;18.00;91.30;;;;;;5114407;28;19981;-71
2023/10/27 10:07:52;;;;;;;;;;;18.70;91.40;;;;;;5100065;28;19912;-73
2023/10/27 10:10:34;;;;;;;;;;;19.30;91.40;;;;;;5100041;28;19907;-75
2023/10/27 10:13:00;;;;;;;;;;;20.20;91.60;;;;;;5119371;27;20441;-74
2023/10/27 10:15:27;;;;;;;;;;;21.20;91.70;;;;;;5118941;27;20000;-64
2023/10/27 10:17:53;;;;;;;;;;;22.10;91.70;;;;;;5117669;27;20097;-77
2023/10/27 10:20:58;;;;;;;;;;;22.80;91.50;;;;;;5102032;27;20367;-80
2023/10/27 10:23:25;;;;;;;;;;;23.40;91.30;;;;;;5054539;28;19908;-74
2023/10/27 10:25:59;;;;;;;;;;;23.90;91.10;;;;;;5056809;28;20349;-73
2023/10/27 10:28:26;;;;;;;;;;;24.00;90.90;;;;;;5090632;27;19915;-78
2023/10/27 10:31:06;;;;;;;;;;;24.10;90.60;;;;;;5107363;27;19907;-74
2023/10/27 10:33:33;;;;;;;;;;;23.90;90.60;;;;;;5092329;27;19912;-75
2023/10/27 10:36:17;;;;;;;;;;;23.90;91.10;;;;;;5120198;27;19911;-73
2023/10/27 10:38:52;;;;;;;;;;;24.20;91.20;;;;;;5100731;27;20380;-76
2023/10/27 10:41:20;;;;;;;;;;;24.50;91.10;;;;;;5101194;27;19934;-75
2023/10/27 10:44:06;;;;;;;;;;;24.50;90.60;;;;;;5106981;27;19912;-73
2023/10/27 10:46:31;;;;;;;;;;;24.00;90.40;;;;;;5118800;27;19916;-74
2023/10/27 10:48:57;;;;;;;;;;;23.50;91.00;;;;;;5118959;27;19916;-76
2023/10/27 10:51:30;;;;;;;;;;;23.40;91.40;;;;;;5099912;27;19961;-72
2023/10/27 10:53:56;;;;;;;;;;;23.50;91.80;;;;;;5115743;27;19911;-76
2023/10/27 10:56:22;;;;;;;;;;;23.70;91.70;;;;;;5116890;27;20240;-72
2023/10/27 10:58:48;;;;;;;;;;;23.80;91.50;;;;;;5116306;27;19916;-76
2023/10/27 11:01:18;;;;;;;;;;;23.90;91.40;;;;;;5098244;28;19931;-75
2023/10/27 11:03:48;;;;;;;;;;;24.10;91.50;;;;;;5114415;27;19946;-74
2023/10/27 11:06:14;;;;;;;;;;;24.40;91.50;;;;;;5119578;27;19926;-72
2023/10/27 11:08:40;;;;;;;;;;;24.70;91.40;;;;;;5111014;28;20510;-76
2023/10/27 11:11:09;;;;;;;;;;;25.00;91.40;;;;;;5093968;28;20039;-76
2023/10/27 11:13:47;;;;;;;;;;;25.00;91.00;;;;;;5111920;28;19912;-77
2023/10/27 11:16:15;;;;;;;;;;;24.80;90.80;;;;;;5092240;28;19938;-74
2023/10/27 11:18:42;;;;;;;;;;;24.70;91.00;;;;;;5096152;28;19979;-76
2023/10/27 11:21:13;;;;;;;;;;;24.50;90.70;;;;;;5089690;28;19908;-71
2023/10/27 11:23:39;;;;;;;;;;;24.00;90.40;;;;;;5089928;28;19911;-72
2023/10/27 11:26:05;;;;;;;;;;;23.40;90.30;;;;;;5088848;28;20011;-73
2023/10/27 11:28:36;;;;;;;;;;;22.90;90.50;;;;;;5089869;28;20320;-72
2023/10/27 11:31:15;;;;;;;;;;;22.40;90.50;;;;;;5108208;28;19932;-75
2023/10/27 11:33:59;;;;;;;;;;;22.10;90.80;;;;;;5109396;28;19933;-71
2023/10/27 11:36:26;;;;;;;;;;;21.90;90.90;;;;;;5109750;28;19908;-71
2023/10/27 11:38:52;;;;;;;;;;;21.60;90.90;;;;;;5109780;28;19918;-72
2023/10/27 11:41:19;;;;;;;;;;;21.40;90.70;;;;;;5109498;28;19994;-69
2023/10/27 11:43:45;;;;;;;;;;;21.20;90.70;;;;;;5091585;28;19912;-71
2023/10/27 11:46:18;;;;;;;;;;;20.90;90.80;;;;;;5101254;28;19995;-72
2023/10/27 11:48:44;;;;;;;;;;;20.70;90.80;;;;;;5089594;28;19916;-73
2023/10/27 11:51:11;;;;;;;;;;;20.90;91.40;;;;;;5089862;28;19923;-75
2023/10/27 11:53:40;;;;;;;;;;;21.30;91.50;;;;;;5072001;28;19919;-76
2023/10/27 11:56:06;;;;;;;;;;;21.70;91.50;;;;;;5089687;28;20086;-69
2023/10/27 11:58:31;;;;;;;;;;;22.00;91.50;;;;;;5089157;28;20006;-74
2023/10/27 12:00:57;;;;;;;;;;;22.30;91.50;;;;;;5089229;28;19923;-75
2023/10/27 12:03:23;;;;;;;;;;;22.50;91.40;;;;;;5076189;28;19920;-74
2023/10/27 12:05:48;;;;;;;;;;;22.70;91.20;;;;;;5109726;28;20403;-76
2023/10/27 12:08:14;;;;;;;;;;;22.60;91.00;;;;;;5092194;28;19912;-77
2023/10/27 12:10:39;;;;;;;;;;;22.80;91.10;;;;;;5110198;28;19912;-74
2023/10/27 12:13:08;;;;;;;;;;;22.70;90.70;;;;;;5109518;28;19919;-78
2023/10/27 12:15:34;;;;;;;;;;;22.50;90.60;;;;;;5107664;28;19911;-77
2023/10/27 12:18:03;;;;;;;;;;;22.10;90.20;;;;;;5102497;28;20343;-76
2023/10/27 12:20:32;;;;;;;;;;;21.50;90.10;;;;;;5089088;28;19912;-76
2023/10/27 12:22:58;;;;;;;;;;;21.00;90.40;;;;;;5124371;27;19923;-77
2023/10/27 12:25:23;;;;;;;;;;;21.00;90.80;;;;;;5131081;27;19908;-75
2023/10/27 12:27:49;;;;;;;;;;;20.90;90.60;;;;;;5111063;27;19912;-76
2023/10/27 12:30:15;;;;;;;;;;;20.80;90.60;;;;;;5131043;27;19907;-75
2023/10/27 12:32:42;;;;;;;;;;;20.60;90.40;;;;;;5120828;27;19912;-74
2023/10/27 12:35:08;;;;;;;;;;;20.40;90.20;;;;;;5093696;27;19916;-73
2023/10/27 12:37:34;;;;;;;;;;;20.10;90.00;;;;;;5129794;27;20013;-74
2023/10/27 12:40:00;;;;;;;;;;;19.70;90.00;;;;;;5122322;27;20006;-74
2023/10/27 12:42:26;;;;;;;;;;;19.40;90.00;;;;;;5115000;27;19955;-75
2023/10/27 12:44:51;;;;;;;;;;;19.10;90.10;;;;;;5091341;28;19912;-74
2023/10/27 12:47:17;;;;;;;;;;;18.90;90.10;;;;;;5110004;28;19955;-73
2023/10/27 12:49:43;;;;;;;;;;;18.70;90.00;;;;;;5090209;28;20361;-72
2023/10/27 12:52:08;;;;;;;;;;;18.50;90.10;;;;;;5108813;28;19991;-73
2023/10/27 12:54:37;;;;;;;;;;;18.40;90.10;;;;;;5109568;28;19912;-73
2023/10/27 12:57:03;;;;;;;;;;;18.40;90.10;;;;;;5109293;28;20268;-73
2023/10/27 12:59:29;;;;;;;;;;;18.30;90.10;;;;;;5115432;27;19916;-73
2023/10/27 13:01:55;;;;;;;;;;;18.20;90.10;;;;;;5100615;27;19912;-73
2023/10/27 13:04:20;;;;;;;;;;;18.20;90.10;;;;;;5099328;28;19980;-74
2023/10/27 13:06:46;;;;;;;;;;;18.20;90.10;;;;;;5114743;27;20019;-76
2023/10/27 13:09:11;;;;;;;;;;;18.20;90.10;;;;;;5096035;28;20548;-75
2023/10/27 13:11:38;;;;;;;;;;;18.30;90.10;;;;;;5114122;27;19919;-75
2023/10/27 13:14:04;;;;;;;;;;;18.40;90.00;;;;;;5096333;28;19955;-74
2023/10/27 13:16:30;;;;;;;;;;;18.40;89.90;;;;;;5101664;28;19912;-75
2023/10/27 13:18:55;;;;;;;;;;;18.40;89.90;;;;;;5118569;28;20014;-74
2023/10/27 13:21:21;;;;;;;;;;;18.40;89.60;;;;;;5115530;28;19922;-76
2023/10/27 13:23:47;;;;;;;;;;;18.40;89.60;;;;;;5099181;28;19916;-76
2023/10/27 13:26:13;;;;;;;;;;;18.30;89.50;;;;;;5117768;28;19911;-76
2023/10/27 13:28:38;;;;;;;;;;;18.30;89.60;;;;;;5102492;28;19911;-75
2023/10/27 13:31:04;;;;;;;;;;;18.30;89.60;;;;;;5115306;28;19911;-76
2023/10/27 13:33:30;;;;;;;;;;;18.30;89.60;;;;;;5118559;28;19919;-74
2023/10/27 13:36:04;;;;;;;;;;;18.30;89.50;;;;;;5100393;28;19916;-75
2023/10/27 13:38:29;;;;;;;;;;;18.30;89.70;;;;;;5117387;28;19919;-75
2023/10/27 13:40:55;;;;;;;;;;;18.30;89.80;;;;;;5114868;28;19911;-76
2023/10/27 13:43:21;;;;;;;;;;;18.20;89.50;;;;;;5090280;28;19915;-76
2023/10/27 13:45:47;;;;;;;;;;;18.10;89.50;;;;;;5108739;28;19918;-76
2023/10/27 13:48:13;;;;;;;;;;;18.10;89.40;;;;;;5110889;27;19950;-75
2023/10/27 13:50:39;;;;;;;;;;;18.00;89.30;;;;;;5115605;27;19947;-74
2023/10/27 13:53:04;;;;;;;;;;;17.80;89.40;;;;;;5112776;28;19915;-74
2023/10/27 13:55:30;;;;;;;;;;;17.70;89.50;;;;;;5112541;28;20329;-74
2023/10/27 13:57:55;;;;;;;;;;;17.60;89.50;;;;;;5112892;28;19962;-75
2023/10/27 14:00:26;;;;;;;;;;;17.50;89.70;;;;;;5078190;28;20022;-75
2023/10/27 14:02:55;;;;;;;;;;;17.40;89.80;;;;;;5113150;28;20057;-70
2023/10/27 14:05:21;;;;;;;;;;;17.40;89.80;;;;;;5112061;28;20393;-72
2023/10/27 14:07:47;;;;;;;;;;;17.20;89.90;;;;;;5093899;28;19916;-76
2023/10/27 14:10:13;;;;;;;;;;;17.20;90.00;;;;;;5112208;28;19971;-72
2023/10/27 14:12:38;;;;;;;;;;;17.30;90.10;;;;;;5111703;28;19911;-72
2023/10/27 14:15:06;;;;;;;;;;;17.30;89.80;;;;;;5111301;28;19908;-73
2023/10/27 14:17:32;;;;;;;;;;;17.30;89.80;;;;;;5112329;28;19919;-74
2023/10/27 14:19:57;;;;;;;;;;;17.30;89.50;;;;;;5093929;28;19919;-74